createdAt,value
2023-01-21T00:00:47.940Z,72.90
2023-01-21T00:03:50.526Z,74.95
2023-01-21T00:06:53.136Z,63.60
2023-01-21T00:09:57.053Z,73.82
2023-01-21T00:12:59.593Z,73.70
2023-01-21T00:16:02.220Z,70.05
2023-01-21T00:19:04.781Z,66.70
2023-01-21T00:22:07.306Z,69.60
2023-01-21T00:25:11.474Z,70.03
2023-01-21T00:28:14.433Z,84.03
2023-01-21T00:31:17.259Z,65.15
2023-01-21T00:34:19.855Z,78.47
2023-01-21T00:37:22.420Z,73.78
2023-01-21T00:40:26.613Z,80.25
2023-01-21T00:43:29.256Z,78.10
2023-01-21T00:46:32.146Z,75.22
2023-01-21T00:49:34.739Z,76.78
2023-01-21T00:52:38.504Z,85.28
2023-01-21T00:55:42.457Z,78.18
2023-01-21T00:58:45.076Z,88.68
2023-01-21T01:01:47.787Z,86.63
2023-01-21T01:04:50.372Z,84.75
2023-01-21T01:07:52.912Z,97.07
2023-01-21T01:10:56.791Z,99.93
2023-01-21T01:13:59.476Z,97.32
2023-01-21T01:17:02.060Z,103.25
2023-01-21T01:20:05.251Z,123.93
2023-01-21T01:23:07.893Z,112.75
2023-01-21T01:26:12.955Z,115.55
2023-01-21T01:29:15.540Z,97.90
2023-01-21T01:32:18.218Z,85.93
2023-01-21T01:35:20.834Z,86.22
2023-01-21T01:38:23.540Z,100.00
2023-01-21T01:41:29.779Z,98.75
2023-01-21T01:44:58.210Z,93.95
2023-01-21T01:51:04.437Z,89.00
2023-01-21T01:54:07.169Z,92.18
2023-01-21T01:57:12.537Z,89.25
2023-01-21T02:00:16.219Z,94.90
2023-01-21T02:03:36.539Z,101.07
2023-01-21T02:06:39.148Z,92.38
2023-01-21T02:09:41.807Z,102.22
2023-01-21T02:12:45.749Z,100.72
2023-01-21T02:15:55.104Z,98.30
2023-01-21T02:19:01.612Z,96.15
2023-01-21T02:22:06.447Z,99.13
2023-01-21T02:25:42.143Z,84.93
2023-01-21T02:29:14.211Z,91.53
2023-01-21T02:32:40.788Z,90.68
2023-01-21T02:35:46.488Z,91.10
2023-01-21T02:38:53.971Z,83.78
2023-01-21T02:45:09.544Z,88.30
2023-01-21T02:51:19.083Z,115.05
2023-01-21T02:54:49.303Z,82.78
2023-01-21T02:57:52.999Z,79.20
2023-01-21T03:00:58.924Z,78.45
2023-01-21T03:04:26.624Z,85.28
2023-01-21T03:07:32.805Z,84.68
2023-01-21T03:10:37.412Z,81.45
2023-01-21T03:13:59.133Z,84.82
2023-01-21T03:17:02.948Z,87.53
2023-01-21T03:20:09.138Z,79.70
2023-01-21T03:23:15.986Z,92.78
2023-01-21T03:26:21.459Z,87.43
2023-01-21T03:29:25.199Z,91.07
2023-01-21T03:32:27.901Z,84.47
2023-01-21T03:35:32.291Z,82.60
2023-01-21T03:38:38.736Z,83.80
2023-01-21T03:41:41.267Z,86.20
2023-01-21T03:44:43.852Z,81.47
2023-01-21T03:47:50.441Z,83.20
2023-01-21T03:50:55.663Z,91.90
2023-01-21T03:54:00.045Z,84.95
2023-01-21T03:57:02.578Z,78.35
2023-01-21T04:00:05.794Z,87.55
2023-01-21T04:03:08.306Z,81.78
2023-01-21T04:06:11.855Z,88.72
2023-01-21T04:09:15.739Z,82.47
2023-01-21T04:12:18.309Z,79.53
2023-01-21T04:15:20.907Z,84.15
2023-01-21T04:18:23.476Z,82.50
2023-01-21T04:21:25.989Z,97.68
2023-01-21T04:24:29.909Z,88.20
2023-01-21T04:27:32.477Z,83.70
2023-01-21T04:30:35.165Z,85.43
2023-01-21T04:33:37.784Z,86.15
2023-01-21T04:36:40.320Z,78.47
2023-01-21T04:39:44.192Z,81.25
2023-01-21T04:42:46.792Z,84.63
2023-01-21T04:45:50.069Z,95.00
2023-01-21T04:48:52.659Z,93.05
2023-01-21T04:51:55.236Z,88.45
2023-01-21T04:54:59.158Z,84.93
2023-01-21T04:58:01.700Z,87.50
2023-01-21T05:01:04.297Z,87.32
2023-01-21T05:04:06.848Z,79.18
2023-01-21T05:07:09.446Z,85.32
2023-01-21T05:10:16.251Z,89.22
2023-01-21T05:13:19.069Z,67.13
2023-01-21T05:16:21.954Z,76.15
2023-01-21T05:19:24.681Z,72.55
2023-01-21T05:22:27.226Z,77.47
2023-01-21T05:25:31.108Z,74.53
2023-01-21T05:28:33.639Z,80.80
2023-01-21T05:31:36.211Z,74.75
2023-01-21T05:34:38.861Z,76.50
2023-01-21T05:37:41.465Z,75.47
2023-01-21T05:40:45.362Z,71.07
2023-01-21T05:43:47.903Z,81.63
2023-01-21T05:46:50.454Z,106.53
2023-01-21T05:49:53.011Z,182.85
2023-01-21T05:52:55.518Z,110.50
2023-01-21T05:55:59.388Z,91.93
2023-01-21T05:59:01.965Z,86.80
2023-01-21T06:02:04.536Z,93.18
2023-01-21T06:05:08.025Z,112.70
2023-01-21T06:08:10.623Z,86.43
2023-01-21T06:11:14.482Z,84.45
2023-01-21T06:14:17.059Z,79.13
2023-01-21T06:17:19.652Z,86.00
2023-01-21T06:20:22.239Z,77.82
2023-01-21T06:23:25.932Z,105.13
2023-01-21T06:26:29.826Z,141.45
2023-01-21T06:29:32.403Z,128.65
2023-01-21T06:32:35.017Z,92.47
2023-01-21T06:35:37.908Z,111.53
2023-01-21T06:38:40.490Z,217.27
2023-01-21T06:41:44.448Z,86.03
2023-01-21T06:44:47.174Z,94.68
2023-01-21T06:47:49.687Z,81.75
2023-01-21T06:50:52.277Z,92.72
2023-01-21T06:53:54.900Z,87.70
2023-01-21T06:56:58.776Z,86.10
2023-01-21T07:00:01.382Z,81.03
2023-01-21T07:03:04.033Z,170.25
2023-01-21T07:06:07.089Z,197.02
2023-01-21T07:09:09.679Z,119.70
2023-01-21T07:12:13.616Z,107.20
2023-01-21T07:15:16.699Z,100.18
2023-01-21T07:18:19.343Z,98.47
2023-01-21T07:21:22.004Z,103.40
2023-01-21T07:24:24.590Z,104.60
2023-01-21T07:27:28.495Z,92.13
2023-01-21T07:30:31.073Z,88.47
2023-01-21T07:33:33.672Z,98.50
2023-01-21T07:36:36.268Z,92.28
2023-01-21T07:39:38.857Z,94.45
2023-01-21T07:42:42.787Z,91.03
2023-01-21T07:45:45.331Z,81.32
2023-01-21T07:48:48.528Z,83.53
2023-01-21T07:51:51.124Z,73.78
2023-01-21T07:54:53.656Z,92.28
2023-01-21T07:57:58.013Z,80.25
2023-01-21T08:01:00.535Z,89.10
2023-01-21T08:04:03.100Z,78.93
2023-01-21T08:07:11.918Z,80.88
2023-01-21T08:10:16.184Z,83.03
2023-01-21T08:13:20.091Z,89.82
2023-01-21T08:16:22.857Z,87.10
2023-01-21T08:19:25.442Z,99.07
2023-01-21T08:22:27.956Z,78.07
2023-01-21T08:25:30.519Z,81.78
2023-01-21T08:28:34.457Z,100.90
2023-01-21T08:31:37.056Z,81.57
2023-01-21T08:34:39.731Z,83.95
2023-01-21T08:37:42.260Z,95.30
2023-01-21T08:40:44.823Z,79.65
2023-01-21T08:43:48.766Z,77.95
2023-01-21T08:46:51.348Z,91.68
2023-01-21T08:49:53.894Z,78.22
2023-01-21T08:52:57.088Z,84.88
2023-01-21T08:56:00.938Z,88.55
2023-01-21T08:59:04.824Z,88.90
2023-01-21T09:02:08.465Z,90.30
2023-01-21T09:05:11.077Z,93.80
2023-01-21T09:08:13.615Z,85.10
2023-01-21T09:11:16.679Z,75.95
2023-01-21T09:14:21.451Z,76.55
2023-01-21T09:17:24.069Z,73.50
2023-01-21T09:20:26.655Z,68.55
2023-01-21T09:23:32.116Z,64.38
2023-01-21T09:26:34.690Z,70.22
2023-01-21T09:29:38.564Z,69.05
2023-01-21T09:32:41.085Z,68.55
2023-01-21T09:35:44.337Z,67.28
2023-01-21T09:38:47.663Z,60.83
2023-01-21T09:41:50.834Z,66.45
2023-01-21T09:44:54.799Z,68.10
2023-01-21T09:47:57.404Z,69.75
2023-01-21T09:51:01.083Z,71.93
2023-01-21T09:54:03.731Z,70.32
2023-01-21T09:57:32.997Z,69.47
2023-01-21T10:00:37.952Z,66.85
2023-01-21T10:03:44.448Z,78.47
2023-01-21T10:06:48.376Z,78.47
2023-01-21T10:09:56.194Z,72.47
2023-01-21T10:13:06.818Z,73.45
2023-01-21T10:16:13.997Z,77.30
2023-01-21T10:19:19.335Z,75.30
2023-01-21T10:22:23.748Z,79.90
2023-01-21T10:25:27.571Z,70.80
2023-01-21T10:28:30.515Z,67.45
2023-01-21T10:31:36.290Z,71.95
2023-01-21T10:34:41.144Z,71.60
2023-01-21T10:37:45.245Z,73.70
2023-01-21T10:40:49.902Z,77.03
2023-01-21T10:43:55.215Z,67.95
2023-01-21T10:47:01.945Z,66.40
2023-01-21T10:50:06.735Z,61.40
2023-01-21T10:53:14.143Z,61.80
2023-01-21T10:56:23.960Z,55.65
2023-01-21T10:59:27.795Z,61.08
2023-01-21T11:02:32.513Z,65.38
2023-01-21T11:05:35.090Z,61.58
2023-01-21T11:08:37.871Z,55.45
2023-01-21T11:11:41.551Z,61.03
2023-01-21T11:14:44.374Z,60.65
2023-01-21T11:17:50.328Z,61.95
2023-01-21T11:20:52.934Z,78.07
2023-01-21T11:23:55.663Z,73.63
2023-01-21T11:26:59.673Z,75.72
2023-01-21T11:30:02.300Z,75.85
2023-01-21T11:33:22.264Z,69.18
2023-01-21T11:36:24.803Z,63.30
2023-01-21T11:39:28.117Z,75.50
2023-01-21T11:42:30.641Z,71.25
2023-01-21T11:45:34.065Z,70.25
2023-01-21T11:48:39.574Z,67.45
2023-01-21T11:51:42.760Z,54.85
2023-01-21T11:54:45.505Z,47.72
2023-01-21T11:57:50.843Z,52.85
2023-01-21T12:00:55.613Z,50.95
2023-01-21T12:04:00.664Z,46.92
2023-01-21T12:07:03.395Z,44.10
2023-01-21T12:10:09.375Z,48.75
2023-01-21T12:13:16.134Z,43.20
2023-01-21T12:16:32.062Z,45.65
2023-01-21T12:19:42.939Z,49.50
2023-01-21T12:23:04.803Z,43.63
2023-01-21T12:26:28.362Z,47.17
2023-01-21T12:29:38.325Z,41.95
2023-01-21T12:32:42.174Z,40.35
2023-01-21T12:35:47.147Z,43.20
2023-01-21T12:38:51.940Z,39.22
2023-01-21T12:42:03.071Z,39.22
2023-01-21T12:45:07.270Z,38.05
2023-01-21T12:48:12.732Z,40.50
2023-01-21T12:51:19.107Z,43.58
2023-01-21T12:54:24.835Z,42.00
2023-01-21T12:57:30.070Z,41.90
2023-01-21T13:00:33.546Z,39.63
2023-01-21T13:03:41.416Z,35.88
2023-01-21T13:06:54.272Z,41.47
2023-01-21T13:09:59.914Z,50.03
2023-01-21T13:13:04.672Z,38.00
2023-01-21T13:16:08.076Z,37.53
2023-01-21T13:19:10.718Z,44.40
2023-01-21T13:22:22.114Z,53.85
2023-01-21T13:25:29.659Z,48.35
2023-01-21T13:31:37.201Z,46.30
2023-01-21T13:34:42.528Z,46.22
2023-01-21T13:37:50.046Z,44.33
2023-01-21T13:44:08.618Z,40.67
2023-01-21T13:47:17.296Z,76.70
2023-01-21T13:50:25.691Z,45.88
2023-01-21T13:53:38.882Z,49.38
2023-01-21T13:56:50.743Z,50.08
2023-01-21T13:59:54.087Z,63.85
2023-01-21T14:02:58.741Z,134.23
2023-01-21T14:06:03.305Z,95.20
2023-01-21T14:09:09.167Z,165.52
2023-01-21T14:12:14.156Z,186.85
2023-01-21T14:15:26.506Z,62.10
2023-01-21T14:18:39.547Z,107.93
2023-01-21T14:21:51.535Z,49.80
2023-01-21T14:25:16.180Z,48.92
2023-01-21T14:28:21.154Z,47.45
2023-01-21T14:31:25.052Z,46.25
2023-01-21T14:34:29.694Z,43.55
2023-01-21T14:37:33.805Z,51.45
2023-01-21T14:40:37.712Z,50.20
2023-01-21T14:43:51.481Z,85.68
2023-01-21T14:47:15.921Z,536.72
2023-01-21T14:50:43.932Z,49.13
2023-01-21T14:53:47.471Z,54.50
2023-01-21T14:56:54.491Z,156.60
2023-01-21T15:00:04.461Z,61.22
2023-01-21T15:03:15.088Z,101.40
2023-01-21T15:06:20.671Z,159.30
2023-01-21T15:09:25.458Z,124.88
2023-01-21T15:12:30.888Z,83.15
2023-01-21T15:15:36.484Z,73.03
2023-01-21T15:18:39.805Z,58.47
2023-01-21T15:21:44.290Z,92.75
2023-01-21T15:25:03.636Z,115.07
2023-01-21T15:28:38.115Z,234.95
2023-01-21T15:31:42.457Z,88.32
2023-01-21T15:34:45.139Z,73.95
2023-01-21T15:37:48.519Z,54.83
2023-01-21T15:40:53.137Z,79.10
2023-01-21T15:44:08.232Z,63.72
2023-01-21T15:47:19.707Z,79.63
2023-01-21T15:50:22.989Z,93.57
2023-01-21T15:53:37.075Z,62.60
2023-01-21T15:56:50.334Z,270.92
2023-01-21T16:00:02.909Z,226.23
2023-01-21T16:03:16.931Z,426.20
2023-01-21T16:06:23.722Z,280.88
2023-01-21T16:09:29.616Z,216.30
2023-01-21T16:12:36.547Z,365.25
2023-01-21T16:15:44.450Z,396.67
2023-01-21T16:18:52.614Z,341.60
2023-01-21T16:21:56.574Z,524.72
2023-01-21T16:25:00.365Z,507.17
2023-01-21T16:28:02.971Z,354.95
2023-01-21T16:31:07.222Z,167.65
2023-01-21T16:34:09.904Z,599.22
2023-01-21T16:37:12.869Z,413.48
2023-01-21T16:40:31.414Z,164.43
2023-01-21T16:43:35.208Z,272.48
2023-01-21T16:46:40.195Z,298.63
2023-01-21T16:49:43.493Z,145.35
2023-01-21T16:52:46.103Z,394.17
2023-01-21T16:55:50.483Z,338.52
2023-01-21T16:58:53.007Z,232.63
2023-01-21T17:01:57.082Z,136.02
2023-01-21T17:05:00.303Z,90.47
2023-01-21T17:08:04.009Z,171.13
2023-01-21T17:11:09.083Z,217.70
2023-01-21T17:14:11.743Z,261.38
2023-01-21T17:17:21.012Z,222.93
2023-01-21T17:20:37.519Z,298.33
2023-01-21T17:23:44.813Z,385.13
2023-01-21T17:26:48.368Z,424.17
2023-01-21T17:29:51.285Z,171.95
2023-01-21T17:32:55.685Z,250.13
2023-01-21T17:36:09.327Z,225.88
2023-01-21T17:39:12.023Z,253.10
2023-01-21T17:42:14.655Z,288.80
2023-01-21T17:45:19.097Z,201.38
2023-01-21T17:48:26.856Z,335.05
2023-01-21T17:54:32.083Z,218.40
2023-01-21T17:57:35.260Z,232.73
2023-01-21T18:00:42.471Z,329.05
2023-01-21T18:03:46.647Z,404.00
2023-01-21T18:06:50.689Z,360.52
2023-01-21T18:09:53.438Z,371.23
2023-01-21T18:12:56.888Z,263.45
2023-01-21T18:15:59.475Z,496.60
2023-01-21T18:19:03.438Z,470.83
2023-01-21T18:22:07.243Z,359.20
2023-01-21T18:25:12.137Z,328.95
2023-01-21T18:28:16.764Z,372.70
2023-01-21T18:31:19.466Z,359.02
2023-01-21T18:34:23.600Z,474.75
2023-01-21T18:37:26.155Z,479.20
2023-01-21T18:40:28.674Z,254.35
2023-01-21T18:43:31.192Z,429.83
2023-01-21T18:46:33.823Z,507.45
2023-01-21T18:49:37.779Z,362.95
2023-01-21T18:52:40.345Z,259.67
2023-01-21T18:55:43.999Z,150.55
2023-01-21T18:58:46.563Z,167.52
2023-01-21T19:01:49.161Z,104.32
2023-01-21T19:04:53.048Z,151.60
2023-01-21T19:07:55.569Z,131.35
2023-01-21T19:10:58.167Z,125.47
2023-01-21T19:14:01.887Z,118.50
2023-01-21T19:17:04.441Z,107.32
2023-01-21T19:20:15.231Z,102.63
2023-01-21T19:23:18.404Z,98.45
2023-01-21T19:26:20.987Z,96.88
2023-01-21T19:29:24.867Z,104.28
2023-01-21T19:32:27.392Z,118.47
2023-01-21T19:35:32.802Z,118.53
2023-01-21T19:38:35.393Z,281.15
2023-01-21T19:41:37.918Z,349.73
2023-01-21T19:44:40.497Z,206.18
2023-01-21T19:47:43.324Z,161.30
2023-01-21T19:50:47.391Z,163.85
2023-01-21T19:53:50.043Z,295.40
2023-01-21T19:56:52.620Z,227.13
2023-01-21T19:59:55.197Z,189.63
2023-01-21T20:02:57.999Z,332.75
2023-01-21T20:06:03.024Z,168.73
2023-01-21T20:09:05.649Z,317.33
2023-01-21T20:12:09.574Z,167.00
2023-01-21T20:15:12.952Z,134.18
2023-01-21T20:18:18.034Z,338.58
2023-01-21T20:21:22.087Z,158.15
2023-01-21T20:24:26.774Z,278.48
2023-01-21T20:27:29.386Z,272.15
2023-01-21T20:30:32.832Z,184.45
2023-01-21T20:33:35.956Z,196.90
2023-01-21T20:36:39.858Z,213.43
2023-01-21T20:39:42.383Z,218.35
2023-01-21T20:42:44.962Z,325.60
2023-01-21T20:45:47.748Z,283.60
2023-01-21T20:48:51.599Z,235.93
2023-01-21T20:51:55.497Z,426.02
2023-01-21T20:54:58.069Z,156.15
2023-01-21T20:58:00.633Z,289.52
2023-01-21T21:01:03.187Z,234.52
2023-01-21T21:04:06.114Z,149.48
2023-01-21T21:07:12.930Z,252.82
2023-01-21T21:10:19.432Z,173.48
2023-01-21T21:13:22.072Z,109.83
2023-01-21T21:16:26.220Z,157.38
2023-01-21T21:19:28.872Z,185.98
2023-01-21T21:22:32.749Z,174.52
2023-01-21T21:25:37.957Z,246.20
2023-01-21T21:28:40.541Z,245.05
2023-01-21T21:31:43.340Z,226.48
2023-01-21T21:34:45.926Z,213.95
2023-01-21T21:37:49.808Z,233.13
2023-01-21T21:40:53.103Z,106.10
2023-01-21T21:43:54.809Z,128.55
2023-01-21T21:47:14.855Z,111.65
2023-01-21T21:50:17.656Z,159.70
2023-01-21T21:53:21.526Z,335.60
2023-01-21T21:56:24.211Z,181.73
2023-01-21T21:59:26.766Z,177.07
2023-01-21T22:02:29.393Z,213.93
2023-01-21T22:05:32.920Z,187.43
2023-01-21T22:08:38.097Z,324.73
2023-01-21T22:11:40.690Z,377.00
2023-01-21T22:14:43.352Z,142.43
2023-01-21T22:17:45.928Z,130.05
2023-01-21T22:20:48.540Z,186.50
2023-01-21T22:23:52.683Z,71.72
2023-01-21T22:26:55.263Z,61.72
2023-01-21T22:29:58.891Z,67.75
2023-01-21T22:33:02.660Z,57.08
2023-01-21T22:36:05.742Z,57.25
2023-01-21T22:39:09.611Z,55.60
2023-01-21T22:42:12.140Z,50.83
2023-01-21T22:45:14.721Z,61.47
2023-01-21T22:48:17.422Z,54.80
2023-01-21T22:51:21.205Z,53.75
2023-01-21T22:54:25.205Z,48.83
2023-01-21T22:57:27.792Z,52.47
2023-01-21T23:00:34.714Z,51.83
2023-01-21T23:03:38.127Z,51.42
2023-01-21T23:06:40.649Z,50.15
2023-01-21T23:09:44.579Z,38.75
2023-01-21T23:12:48.040Z,47.40
2023-01-21T23:15:50.675Z,40.58
2023-01-21T23:18:53.450Z,40.15
2023-01-21T23:21:55.967Z,43.00
2023-01-21T23:24:59.883Z,42.15
2023-01-21T23:28:02.548Z,43.63
2023-01-21T23:31:05.933Z,37.80
2023-01-21T23:34:08.615Z,43.70
2023-01-21T23:37:11.228Z,44.47
2023-01-21T23:40:15.522Z,55.92
2023-01-21T23:43:18.228Z,49.25
2023-01-21T23:46:20.885Z,58.25
2023-01-21T23:49:23.499Z,37.88
2023-01-21T23:52:26.140Z,33.70
2023-01-21T23:55:30.056Z,37.13
2023-01-21T23:58:32.645Z,33.17
